Alice, Texas
Current Conditions -  °F | °C
As of 8:53 PM on Friday 19 Dec 2014 (Local Time) from KALI Reporting Station
Overcast Overcast  
Wind Chill: 62°   Ceiling: 2000
Heat Index: 62°   Visibility: 10mi
Dew Point: 54°   Wind: 8mph
Humidity: 75%   Direction: 30°NNE
Pressure: 30.11"   Gusts: NA
Location:  27.75°N, 98.06°W
Report Text: KALI 200253Z AUTO 03007KT 10SM OVC020 17/12 A3011 RMK AO2 SLP194 T01670122 51019
Loading
Personal Weather Stations






























Interactive Weather Map New forecast layout! Learn more

10-Day Weather Forecast

Advertisements
Track Severe Weather on mobile